Time;durP1;ratioP1;P1;durP2;ratioP2;P2;SDS_P1;SDS_P2;PMS_P1;PMS_P2;Temp;Humidity;BMP_temperature;BMP_pressure;BME280_temperature;BME280_humidity;BME280_pressure;Samples;Min_cycle;Max_cycle;Signal;HPM_P1;HPM_P2
2021/05/03 00:01:34;;;;;;;;;12.50;12.00;;;;;14.14;43.37;98511.97;6212297;28;123848;-67
2021/05/03 00:04:37;;;;;;;;;11.80;11.80;;;;;14.23;43.68;98515.84;6212057;28;124956;-67
2021/05/03 00:07:39;;;;;;;;;13.80;13.20;;;;;14.27;43.29;98516.16;6213479;28;126743;-67
2021/05/03 00:10:41;;;;;;;;;10.50;9.00;;;;;14.33;43.19;98509.72;6212001;28;126212;-67
2021/05/03 00:13:45;;;;;;;;;12.00;12.00;;;;;14.22;43.02;98524.28;6194227;28;124778;-67
2021/05/03 00:16:47;;;;;;;;;10.00;9.00;;;;;13.94;42.88;98500.88;6188638;28;124761;-67
2021/05/03 00:19:50;;;;;;;;;11.00;10.00;;;;;14.05;42.95;98515.38;6200312;28;126659;-67
2021/05/03 00:22:52;;;;;;;;;10.80;10.80;;;;;13.93;42.65;98507.38;6213529;28;126517;-67
2021/05/03 00:25:54;;;;;;;;;10.00;10.00;;;;;14.02;42.92;98529.44;6196633;28;124989;-67
2021/05/03 00:28:57;;;;;;;;;11.00;11.00;;;;;13.90;42.66;98524.13;6198198;28;125171;-67
2021/05/03 00:31:59;;;;;;;;;12.00;11.25;;;;;13.96;42.76;98535.88;6211573;28;126545;-67
2021/05/03 00:35:02;;;;;;;;;10.00;10.00;;;;;13.99;42.67;98541.59;6212841;28;126044;-67
2021/05/03 00:38:05;;;;;;;;;13.00;12.00;;;;;13.95;42.25;98535.03;6211698;28;124208;-67
2021/05/03 00:41:08;;;;;;;;;13.00;12.40;;;;;13.98;41.97;98549.97;6200200;28;124573;-67
2021/05/03 00:44:11;;;;;;;;;11.00;10.00;;;;;13.91;42.30;98528.50;6187349;28;126158;-67
2021/05/03 00:47:14;;;;;;;;;14.00;12.00;;;;;13.98;42.29;98537.25;6169298;28;125269;-67
2021/05/03 00:50:19;;;;;;;;;13.00;12.00;;;;;14.00;42.34;98534.28;6184858;28;124817;-67
2021/05/03 00:53:21;;;;;;;;;12.67;11.00;;;;;14.02;42.38;98526.75;6187712;28;126116;-67
2021/05/03 00:56:23;;;;;;;;;12.20;11.20;;;;;14.05;42.31;98540.59;6187602;28;125242;-67
2021/05/03 00:59:27;;;;;;;;;11.60;11.60;;;;;14.03;42.65;98544.63;6186040;28;127701;-67
2021/05/03 01:02:29;;;;;;;;;13.00;12.00;;;;;13.82;43.59;98546.25;6187409;28;125000;-67
2021/05/03 01:05:32;;;;;;;;;12.00;11.50;;;;;13.86;44.06;98542.81;6187119;28;126508;-67
2021/05/03 01:08:34;;;;;;;;;16.00;14.60;;;;;13.77;44.61;98543.47;6194497;28;126173;-67
2021/05/03 01:11:37;;;;;;;;;13.40;13.00;;;;;13.87;44.49;98546.34;6210919;28;126583;-67
2021/05/03 01:14:40;;;;;;;;;13.00;13.00;;;;;13.86;44.54;98547.41;6207448;28;126376;-67
2021/05/03 01:17:42;;;;;;;;;16.50;15.00;;;;;13.80;45.12;98545.69;6188631;28;126291;-67
2021/05/03 01:20:45;;;;;;;;;13.60;13.60;;;;;13.63;45.64;98543.03;6210477;28;126229;-67
2021/05/03 01:23:48;;;;;;;;;15.00;13.00;;;;;13.64;45.84;98544.66;6205155;28;127662;-67
2021/05/03 01:26:50;;;;;;;;;13.80;12.80;;;;;13.62;46.08;98546.81;6187576;28;126204;-67
2021/05/03 01:29:52;;;;;;;;;13.25;12.25;;;;;13.69;46.59;98552.03;6196979;28;126834;-67
2021/05/03 01:32:55;;;;;;;;;15.00;14.00;;;;;13.64;46.79;98557.38;6189606;28;126645;-67
2021/05/03 01:35:57;;;;;;;;;13.00;12.00;;;;;13.62;46.97;98565.75;6203578;28;125362;-67
2021/05/03 01:39:00;;;;;;;;;13.00;12.00;;;;;13.55;47.68;98556.16;6211647;28;126577;-67
2021/05/03 01:42:02;;;;;;;;;13.00;13.00;;;;;13.53;47.64;98556.44;6192873;28;124948;-67
2021/05/03 01:45:06;;;;;;;;;15.20;14.80;;;;;13.46;47.96;98558.47;6184927;28;125255;-67
2021/05/03 01:48:13;;;;;;;;;17.00;16.40;;;;;13.43;48.01;98558.97;6185956;28;126107;-66
2021/05/03 01:51:16;;;;;;;;;13.20;12.20;;;;;13.47;48.29;98567.41;6186618;28;126013;-67
2021/05/03 01:54:20;;;;;;;;;19.00;17.00;;;;;13.44;48.34;98566.84;6204732;28;125332;-67
2021/05/03 01:57:22;;;;;;;;;16.50;15.00;;;;;13.40;48.73;98571.13;6210740;28;124888;-67
2021/05/03 02:00:24;;;;;;;;;19.00;15.00;;;;;13.21;49.10;98564.31;6210777;28;125638;-67
2021/05/03 02:03:28;;;;;;;;;13.60;13.40;;;;;13.12;49.65;98554.16;6210063;28;125249;-67
2021/05/03 02:06:37;;;;;;;;;17.00;15.00;;;;;13.23;49.63;98558.66;6210487;28;126301;-66
2021/05/03 02:09:43;;;;;;;;;16.20;14.80;;;;;13.31;49.43;98563.66;6209109;28;126179;-66
2021/05/03 02:12:45;;;;;;;;;14.00;13.00;;;;;13.30;49.52;98562.00;6211195;28;126153;-67
2021/05/03 02:15:47;;;;;;;;;14.75;13.75;;;;;13.41;49.43;98566.53;6210940;28;125523;-66
2021/05/03 02:18:50;;;;;;;;;13.60;11.00;;;;;13.35;49.77;98570.22;6169404;28;125472;-66
2021/05/03 02:21:52;;;;;;;;;12.00;11.00;;;;;13.29;49.78;98569.31;6168144;28;124846;-66
2021/05/03 02:24:55;;;;;;;;;12.00;11.00;;;;;13.25;49.88;98561.94;6200717;28;127232;-66
2021/05/03 02:27:59;;;;;;;;;12.00;10.60;;;;;13.33;49.95;98573.19;6185356;28;125074;-66
2021/05/03 02:31:01;;;;;;;;;14.67;14.00;;;;;13.42;49.65;98571.69;6168188;28;123189;-66
2021/05/03 02:34:04;;;;;;;;;13.00;11.60;;;;;13.43;49.48;98572.53;6200927;28;126368;-66
2021/05/03 02:37:06;;;;;;;;;15.00;14.40;;;;;13.44;49.52;98577.66;6184223;28;125206;-66
2021/05/03 02:40:12;;;;;;;;;15.00;14.60;;;;;13.44;49.63;98582.25;6186891;28;126184;-66
2021/05/03 02:43:14;;;;;;;;;15.50;14.00;;;;;13.46;49.85;98580.13;6185816;28;126087;-66
2021/05/03 02:46:16;;;;;;;;;15.40;14.40;;;;;13.52;49.34;98586.47;6185824;28;125297;-66
2021/05/03 02:49:19;;;;;;;;;15.00;14.00;;;;;13.62;48.99;98589.31;6195262;28;126437;-66
2021/05/03 02:52:21;;;;;;;;;12.00;12.00;;;;;13.53;48.69;98583.50;6210849;28;126196;-66
2021/05/03 02:55:24;;;;;;;;;16.00;14.00;;;;;13.57;48.81;98589.25;6209280;28;126395;-66
2021/05/03 02:58:29;;;;;;;;;14.50;13.75;;;;;13.58;48.50;98588.19;6207526;28;126033;-66
2021/05/03 03:01:31;;;;;;;;;14.00;13.00;;;;;13.34;48.56;98561.25;6209146;28;124818;-66
2021/05/03 03:04:34;;;;;;;;;15.00;13.00;;;;;13.57;48.34;98603.59;6208881;28;125090;-66
2021/05/03 03:07:36;;;;;;;;;11.50;10.50;;;;;13.49;48.40;98600.50;6210002;28;126340;-66
2021/05/03 03:10:39;;;;;;;;;15.00;13.60;;;;;13.52;48.41;98608.13;6208803;28;126469;-66
2021/05/03 03:13:41;;;;;;;;;19.00;18.00;;;;;13.45;48.32;98605.56;6212711;28;125765;-66
2021/05/03 03:16:44;;;;;;;;;16.00;15.60;;;;;13.40;48.24;98619.03;6213167;28;126570;-66
2021/05/03 03:19:47;;;;;;;;;17.00;16.00;;;;;13.34;48.46;98623.53;6196034;28;126279;-66
2021/05/03 03:22:50;;;;;;;;;14.20;13.20;;;;;13.35;48.20;98622.47;6189857;28;125571;-66
2021/05/03 03:25:53;;;;;;;;;15.00;14.00;;;;;13.41;48.24;98626.91;6188875;28;126678;-66
2021/05/03 03:28:55;;;;;;;;;13.00;13.00;;;;;13.48;48.02;98640.31;6203088;28;126319;-66
2021/05/03 03:31:58;;;;;;;;;11.75;9.75;;;;;13.39;47.86;98639.03;6187640;28;126354;-66
2021/05/03 03:35:00;;;;;;;;;12.00;12.00;;;;;13.41;47.92;98637.75;6187931;28;124531;-66
2021/05/03 03:38:02;;;;;;;;;12.40;11.40;;;;;13.42;47.70;98639.41;6196421;28;126902;-66
2021/05/03 03:41:05;;;;;;;;;15.00;13.00;;;;;13.47;47.01;98644.06;6200951;28;127628;-66
2021/05/03 03:44:09;;;;;;;;;13.20;12.00;;;;;13.24;47.17;98636.91;6191956;28;125673;-66
2021/05/03 03:47:11;;;;;;;;;12.40;11.00;;;;;13.35;47.09;98629.78;6212148;28;125080;-66
2021/05/03 03:50:14;;;;;;;;;12.00;11.00;;;;;13.49;46.86;98657.38;6192487;28;126018;-66
2021/05/03 03:53:18;;;;;;;;;12.00;10.60;;;;;13.55;46.14;98668.03;6188743;28;126406;-66
2021/05/03 03:56:22;;;;;;;;;13.40;13.00;;;;;13.53;46.09;98659.34;6187496;28;126084;-66
2021/05/03 03:59:24;;;;;;;;;13.20;11.60;;;;;13.56;46.23;98675.09;6202429;28;125772;-66
2021/05/03 04:02:28;;;;;;;;;11.00;10.00;;;;;13.41;46.25;98664.00;6195666;28;125198;-66
2021/05/03 04:05:42;;;;;;;;;12.60;11.60;;;;;13.59;46.05;98679.19;6213397;28;124755;-66
2021/05/03 04:08:50;;;;;;;;;12.00;10.00;;;;;13.61;45.73;98685.19;6211796;28;124303;-65
2021/05/03 04:22:03;;;;;;;;;12.60;12.00;;;;;13.67;45.48;98689.63;6210714;28;124967;-65
2021/05/03 04:25:13;;;;;;;;;9.80;9.00;;;;;13.83;45.18;98691.50;6211340;28;125992;-65
2021/05/03 04:28:17;;;;;;;;;8.20;8.20;;;;;13.88;44.76;98688.84;6205713;28;123657;-66
2021/05/03 04:31:20;;;;;;;;;10.40;9.40;;;;;13.88;44.79;98692.38;6198235;28;126046;-66
2021/05/03 04:34:23;;;;;;;;;9.60;9.00;;;;;13.84;44.78;98666.03;6206440;28;126082;-66
2021/05/03 04:37:25;;;;;;;;;10.40;10.40;;;;;13.89;44.86;98707.59;6200798;28;127006;-66
2021/05/03 04:40:27;;;;;;;;;12.25;11.00;;;;;13.98;45.09;98708.00;6184686;28;125905;-66
2021/05/03 04:43:31;;;;;;;;;5.60;5.60;;;;;14.01;45.10;98715.63;6186110;28;124373;-67
2021/05/03 04:46:33;;;;;;;;;14.00;11.00;;;;;13.93;45.42;98710.63;6187658;28;126357;-66
2021/05/03 04:49:35;;;;;;;;;10.60;10.60;;;;;14.06;45.26;98704.88;6203209;28;126965;-66
2021/05/03 04:52:38;;;;;;;;;12.50;12.00;;;;;14.04;45.01;98684.50;6209150;28;126118;-66
2021/05/03 04:55:41;;;;;;;;;12.00;11.40;;;;;13.95;45.06;98686.81;6209508;28;123071;-66
2021/05/03 04:58:44;;;;;;;;;10.00;9.00;;;;;14.13;44.75;98704.69;6209057;28;126632;-66
2021/05/03 05:01:46;;;;;;;;;13.40;11.40;;;;;14.20;44.86;98706.16;6195798;28;124848;-66
2021/05/03 05:04:48;;;;;;;;;10.50;10.25;;;;;14.14;44.69;98714.47;6187614;28;126935;-66
2021/05/03 05:07:50;;;;;;;;;10.00;9.00;;;;;14.08;45.32;98713.56;6198438;28;126191;-66
2021/05/03 05:10:52;;;;;;;;;11.00;11.00;;;;;14.13;45.23;98705.50;6203189;28;126561;-66
2021/05/03 05:13:55;;;;;;;;;10.00;10.00;;;;;14.36;44.93;98719.94;6189102;28;125370;-66
2021/05/03 05:16:58;;;;;;;;;10.00;10.00;;;;;14.45;44.85;98719.28;6197253;28;125102;-66
2021/05/03 05:20:01;;;;;;;;;7.50;7.00;;;;;14.61;42.65;98729.25;6206875;28;126224;-66
2021/05/03 05:23:05;;;;;;;;;8.40;8.00;;;;;14.62;41.27;98724.66;6195543;28;126178;-66
2021/05/03 05:26:08;;;;;;;;;10.67;9.67;;;;;14.61;40.80;98731.97;6203422;28;126273;-66
2021/05/03 05:29:11;;;;;;;;;9.80;9.00;;;;;14.34;40.83;98736.47;6210058;28;123687;-66
2021/05/03 05:32:13;;;;;;;;;9.00;8.40;;;;;14.58;41.05;98751.47;6191191;28;125252;-66
2021/05/03 05:35:16;;;;;;;;;9.00;8.20;;;;;14.76;40.92;98744.13;6184849;28;124961;-66
2021/05/03 05:38:18;;;;;;;;;10.00;10.00;;;;;14.98;40.82;98744.91;6186921;28;126538;-66
2021/05/03 05:41:21;;;;;;;;;9.00;9.00;;;;;14.87;40.15;98745.88;6186733;28;125463;-66
2021/05/03 05:44:24;;;;;;;;;10.00;10.00;;;;;14.99;40.27;98752.00;6186737;28;126469;-66
2021/05/03 05:47:26;;;;;;;;;10.00;10.00;;;;;15.05;40.64;98746.34;6186824;28;124936;-66
2021/05/03 05:50:28;;;;;;;;;9.60;8.00;;;;;15.08;40.66;98747.75;6195603;28;125371;-66
2021/05/03 05:53:31;;;;;;;;;8.00;7.00;;;;;15.03;40.11;98751.25;6211956;28;124658;-66
2021/05/03 05:56:34;;;;;;;;;8.40;8.00;;;;;14.94;40.35;98750.03;6211442;28;126409;-66
2021/05/03 05:59:38;;;;;;;;;8.60;8.60;;;;;14.89;40.35;98749.16;6180221;28;124287;-67
2021/05/03 06:02:40;;;;;;;;;8.00;8.00;;;;;14.91;39.59;98755.97;6211395;28;125000;-66
2021/05/03 06:05:43;;;;;;;;;8.00;8.00;;;;;14.95;38.91;98753.59;6211326;28;125222;-66
2021/05/03 06:08:45;;;;;;;;;8.00;8.00;;;;;14.87;39.11;98716.00;6210879;28;126513;-66
2021/05/03 06:11:48;;;;;;;;;9.00;8.00;;;;;15.17;39.10;98760.63;6209839;28;127110;-66
2021/05/03 06:14:51;;;;;;;;;7.00;7.00;;;;;15.24;38.68;98763.16;6210438;28;126452;-66
2021/05/03 06:17:54;;;;;;;;;7.40;7.00;;;;;15.19;38.27;98768.53;6203783;28;123811;-65
2021/05/03 06:20:56;;;;;;;;;6.00;6.00;;;;;14.95;38.09;98759.84;6187039;28;127139;-65
2021/05/03 06:23:58;;;;;;;;;5.50;5.50;;;;;14.92;37.98;98762.22;6185161;28;125195;-65
2021/05/03 06:27:01;;;;;;;;;6.00;6.00;;;;;14.97;37.89;98765.00;6203511;28;126198;-66
2021/05/03 06:30:06;;;;;;;;;7.00;7.00;;;;;15.05;37.59;98768.06;6210271;28;124219;-66
2021/05/03 06:33:08;;;;;;;;;5.33;5.00;;;;;15.13;37.39;98775.78;6211026;28;126137;-66
2021/05/03 06:36:10;;;;;;;;;6.00;5.00;;;;;15.26;37.17;98781.91;6211268;28;126191;-65
2021/05/03 06:39:13;;;;;;;;;6.00;5.00;;;;;15.34;37.18;98781.47;6209849;28;125129;-65
2021/05/03 06:42:15;;;;;;;;;5.00;5.00;;;;;15.51;37.17;98793.06;6197665;28;126751;-65
2021/05/03 06:45:21;;;;;;;;;7.80;7.00;;;;;15.43;36.78;98771.78;6193998;28;124958;-65
2021/05/03 06:48:24;;;;;;;;;7.00;7.00;;;;;15.67;37.17;98789.44;6193807;28;125866;-67
2021/05/03 06:51:26;;;;;;;;;7.00;6.80;;;;;15.58;37.36;98804.56;6189000;28;126996;-66
2021/05/03 06:54:29;;;;;;;;;8.00;7.00;;;;;15.68;37.43;98790.28;6188956;28;126465;-65
2021/05/03 06:57:32;;;;;;;;;9.00;8.00;;;;;15.63;37.83;98801.91;6188359;28;126746;-65
2021/05/03 07:00:39;;;;;;;;;7.60;7.00;;;;;15.79;38.02;98806.41;6187099;28;125288;-65
2021/05/03 07:03:43;;;;;;;;;6.50;6.50;;;;;15.97;37.40;98807.94;6189214;28;125946;-65
2021/05/03 07:06:45;;;;;;;;;6.00;6.00;;;;;15.74;37.07;98794.66;6188816;28;126612;-67
2021/05/03 07:09:47;;;;;;;;;7.00;6.00;;;;;15.82;36.85;98797.75;6188486;28;127147;-67
2021/05/03 07:12:51;;;;;;;;;7.00;7.00;;;;;15.82;36.95;98788.78;6205527;28;126587;-66
2021/05/03 07:15:54;;;;;;;;;8.00;7.75;;;;;15.96;36.76;98793.53;6219296;28;126250;-66
2021/05/03 07:18:56;;;;;;;;;7.20;6.00;;;;;15.95;36.54;98799.22;6239309;27;126665;-69
2021/05/03 07:22:00;;;;;;;;;9.00;8.00;;;;;16.21;36.19;98798.34;6217323;28;128241;-66
2021/05/03 07:25:05;;;;;;;;;7.40;7.00;;;;;16.13;35.97;98785.22;6214537;28;125081;-67
2021/05/03 07:28:08;;;;;;;;;8.00;8.00;;;;;16.16;35.66;98789.34;6213279;28;128496;-67
2021/05/03 07:31:11;;;;;;;;;8.00;7.00;;;;;16.29;35.18;98805.22;6214740;28;127578;-67
2021/05/03 07:34:14;;;;;;;;;6.00;5.00;;;;;16.36;35.03;98809.34;6214641;28;126071;-67
2021/05/03 07:37:17;;;;;;;;;6.60;6.00;;;;;16.33;34.74;98815.31;6212565;28;125207;-67
2021/05/03 07:40:19;;;;;;;;;4.00;4.00;;;;;15.87;36.56;98826.88;6214516;28;127911;-67
2021/05/03 07:43:22;;;;;;;;;7.00;6.00;;;;;15.34;37.35;98808.63;6214233;28;125843;-67
2021/05/03 07:46:25;;;;;;;;;7.00;6.50;;;;;15.42;37.68;98813.59;6212970;28;126090;-67
2021/05/03 07:49:27;;;;;;;;;6.00;6.00;;;;;15.42;38.51;98841.59;6212341;28;125135;-67
2021/05/03 07:52:30;;;;;;;;;8.00;7.60;;;;;15.25;39.41;98848.97;6213906;28;126271;-67
2021/05/03 07:55:32;;;;;;;;;9.00;7.00;;;;;15.25;38.80;98848.97;6196551;28;124982;-66
2021/05/03 07:58:34;;;;;;;;;6.25;6.00;;;;;15.28;39.41;98853.91;6213835;28;127134;-68
2021/05/03 08:01:38;;;;;;;;;8.50;7.00;;;;;15.44;39.79;98854.94;6191873;28;125328;-67
2021/05/03 08:04:40;;;;;;;;;10.00;9.40;;;;;15.23;39.57;98861.19;6201572;28;126064;-67
2021/05/03 08:07:43;;;;;;;;;9.00;9.00;;;;;15.50;39.47;98879.16;6210948;28;126415;-68
2021/05/03 08:10:45;;;;;;;;;11.00;10.00;;;;;15.76;38.98;98865.91;6213682;28;125135;-67
2021/05/03 08:13:47;;;;;;;;;9.60;9.60;;;;;15.83;38.45;98877.41;6202934;28;124748;-67
2021/05/03 08:16:55;;;;;;;;;9.00;8.40;;;;;15.91;38.13;98864.16;6208797;28;124220;-67
2021/05/03 08:19:57;;;;;;;;;11.40;11.00;;;;;16.20;38.34;98872.88;6198612;28;125946;-67
2021/05/03 08:22:59;;;;;;;;;11.00;11.00;;;;;16.31;37.82;98874.63;6203114;28;126285;-68
2021/05/03 08:26:02;;;;;;;;;11.00;10.00;;;;;16.45;36.82;98880.44;6201426;28;126462;-68
2021/05/03 08:29:05;;;;;;;;;7.00;7.00;;;;;16.48;36.16;98866.31;6188172;28;124220;-68
2021/05/03 08:32:09;;;;;;;;;11.33;11.33;;;;;16.84;36.30;98894.63;6194522;28;126491;-68
2021/05/03 08:35:12;;;;;;;;;12.00;10.33;;;;;16.74;36.35;98900.00;6212972;28;126722;-68
2021/05/03 08:38:17;;;;;;;;;11.00;10.00;;;;;16.79;36.38;98886.44;6212934;28;126196;-68
2021/05/03 08:41:19;;;;;;;;;12.60;11.00;;;;;17.02;36.27;98894.22;6211545;28;126197;-68
2021/05/03 08:44:21;;;;;;;;;10.00;9.00;;;;;17.09;35.57;98893.97;6206942;28;123301;-68
2021/05/03 08:47:28;;;;;;;;;11.00;10.00;;;;;17.47;35.50;98900.97;6194075;28;126154;-67
2021/05/03 08:50:46;;;;;;;;;6.60;6.60;;;;;17.69;34.49;98902.47;6198813;28;124272;-68
2021/05/03 08:53:55;;;;;;;;;9.00;9.00;;;;;17.68;33.72;98895.38;6212536;28;124765;-67
2021/05/03 08:56:58;;;;;;;;;8.60;8.00;;;;;17.94;33.65;98892.72;6206345;28;125936;-67
2021/05/03 09:00:00;;;;;;;;;10.33;10.00;;;;;18.14;33.67;98893.59;6210920;28;127522;-66
2021/05/03 09:03:05;;;;;;;;;10.25;10.00;;;;;18.27;33.53;98905.06;6193867;28;126266;-66
2021/05/03 09:06:10;;;;;;;;;10.00;9.50;;;;;18.11;32.62;98902.31;6169707;28;125032;-67
2021/05/03 09:09:13;;;;;;;;;10.00;9.00;;;;;17.66;33.10;98902.19;6187006;28;124689;-67
2021/05/03 09:12:19;;;;;;;;;8.60;8.60;;;;;17.55;32.46;98914.09;6186471;28;127407;-67
2021/05/03 09:15:24;;;;;;;;;6.00;6.00;;;;;17.23;33.20;98923.22;6206233;28;127220;-67
2021/05/03 09:18:27;;;;;;;;;6.20;6.20;;;;;17.02;33.67;98923.34;6205025;28;126242;-66
2021/05/03 09:21:31;;;;;;;;;5.00;5.00;;;;;16.81;33.73;98909.59;6192945;28;126801;-67
2021/05/03 09:24:34;;;;;;;;;4.67;4.67;;;;;16.69;32.96;98924.47;6193002;28;126152;-67
2021/05/03 09:27:36;;;;;;;;;5.00;4.00;;;;;16.67;32.00;98923.91;6198573;28;124977;-67
2021/05/03 09:30:41;;;;;;;;;4.00;4.00;;;;;16.73;32.22;98937.31;6202641;28;124050;-70
2021/05/03 09:33:44;;;;;;;;;5.00;5.00;;;;;16.78;31.90;98933.78;6189230;28;125818;-67
2021/05/03 09:36:46;;;;;;;;;4.00;3.00;;;;;16.87;31.88;98943.13;6197100;28;126323;-67
2021/05/03 09:39:59;;;;;;;;;5.75;5.25;;;;;17.41;31.57;98938.28;6199454;28;126739;-67
2021/05/03 09:43:03;;;;;;;;;5.60;5.60;;;;;17.89;31.59;98933.59;6198608;28;127212;-66
2021/05/03 09:46:34;;;;;;;;;5.50;5.00;;;;;18.18;30.54;98946.53;6202315;28;125332;-67
2021/05/03 09:49:37;;;;;;;;;5.00;4.40;;;;;18.30;29.51;98935.38;6196756;28;125999;-66
2021/05/03 09:52:39;;;;;;;;;3.00;3.00;;;;;18.47;28.91;98938.66;6212082;28;126621;-67
2021/05/03 09:55:43;;;;;;;;;4.00;4.00;;;;;18.72;28.39;98926.94;6209788;28;127383;-67
2021/05/03 09:58:47;;;;;;;;;5.00;4.00;;;;;18.84;29.09;98930.22;6188558;28;124729;-66
2021/05/03 10:02:00;;;;;;;;;4.00;4.00;;;;;19.03;28.19;98920.38;6186933;28;126551;-67
2021/05/03 10:05:07;;;;;;;;;3.00;2.25;;;;;19.24;27.79;98934.00;6186176;28;124661;-68
2021/05/03 10:08:10;;;;;;;;;4.00;4.00;;;;;19.11;27.39;98927.19;6186957;28;125946;-67
2021/05/03 10:11:15;;;;;;;;;4.00;4.00;;;;;19.38;27.28;98938.63;6186543;28;126062;-67
2021/05/03 10:14:19;;;;;;;;;5.50;5.00;;;;;19.51;27.28;98947.34;6185901;28;124065;-67
2021/05/03 10:17:21;;;;;;;;;5.00;4.00;;;;;19.48;27.26;98915.09;6186960;28;126225;-68
2021/05/03 10:20:27;;;;;;;;;3.00;3.00;;;;;19.61;27.35;98923.53;6197746;28;127137;-67
2021/05/03 10:23:31;;;;;;;;;5.00;5.00;;;;;19.80;26.28;98927.25;6212041;28;125198;-67
2021/05/03 10:26:34;;;;;;;;;5.00;3.00;;;;;19.95;26.69;98931.84;6210943;28;127307;-67
2021/05/03 10:29:40;;;;;;;;;3.00;3.00;;;;;19.75;25.85;98938.22;6206900;28;126334;-67
2021/05/03 10:32:44;;;;;;;;;4.00;4.00;;;;;19.65;25.90;98929.25;6209832;28;127174;-67
2021/05/03 10:35:48;;;;;;;;;3.00;3.00;;;;;19.52;26.10;98941.59;6209800;28;127020;-67
2021/05/03 10:38:50;;;;;;;;;4.00;4.00;;;;;19.51;26.78;98945.44;6210902;28;126110;-67
2021/05/03 10:42:03;;;;;;;;;4.00;4.00;;;;;19.37;27.25;98944.34;6210893;28;124470;-67
2021/05/03 10:45:11;;;;;;;;;4.75;4.00;;;;;19.06;26.89;98951.78;6209181;28;123996;-67
2021/05/03 10:48:35;;;;;;;;;5.00;5.00;;;;;18.92;26.65;98956.16;6210474;28;125803;-67
2021/05/03 10:51:47;;;;;;;;;3.00;3.00;;;;;19.06;26.00;98951.00;6208038;28;125162;-67
2021/05/03 10:54:53;;;;;;;;;3.80;3.80;;;;;19.14;25.99;98969.56;6210002;28;125897;-68
2021/05/03 10:57:59;;;;;;;;;4.00;2.00;;;;;19.12;25.50;98952.59;6210937;28;125860;-67
2021/05/03 11:01:15;;;;;;;;;3.20;3.20;;;;;19.31;26.42;98959.13;6210382;28;124898;-67
2021/05/03 11:04:17;;;;;;;;;4.00;3.60;;;;;19.52;26.02;98954.47;6208386;28;125474;-67
2021/05/03 11:07:20;;;;;;;;;5.00;4.00;;;;;19.78;26.46;98950.56;6208916;28;125108;-67
2021/05/03 11:10:54;;;;;;;;;4.40;4.00;;;;;20.07;26.19;98956.16;6210158;28;125908;-67
2021/05/03 11:14:09;;;;;;;;;4.00;4.00;;;;;20.21;25.74;98938.81;6185542;28;127142;-68
2021/05/03 11:17:13;;;;;;;;;4.00;3.60;;;;;20.70;25.98;98944.28;6184344;28;125986;-67
2021/05/03 11:20:18;;;;;;;;;4.00;4.00;;;;;21.00;25.00;98939.63;6183140;28;127006;-67
2021/05/03 11:23:29;;;;;;;;;5.40;4.80;;;;;21.15;24.81;98947.75;6186688;28;124753;-67
2021/05/03 11:26:35;;;;;;;;;6.00;6.00;;;;;21.39;24.19;98931.31;6184775;28;125292;-67
2021/05/03 11:29:41;;;;;;;;;4.00;4.00;;;;;21.42;22.63;98928.81;6185661;28;124138;-67
2021/05/03 11:32:44;;;;;;;;;4.75;4.75;;;;;21.07;23.49;98929.13;6186640;28;124680;-68
2021/05/03 11:35:53;;;;;;;;;3.00;3.00;;;;;20.56;22.83;98943.28;6188819;28;124991;-68
2021/05/03 11:39:01;;;;;;;;;4.60;4.60;;;;;20.19;22.96;98935.53;6189688;28;124729;-68
2021/05/03 11:42:28;;;;;;;;;4.60;4.00;;;;;20.10;23.44;98933.69;6204854;28;124760;-68
2021/05/03 11:45:30;;;;;;;;;6.00;6.00;;;;;20.06;24.33;98932.63;6214085;28;126042;-67
2021/05/03 11:48:33;;;;;;;;;4.00;4.00;;;;;20.07;24.21;98939.75;6211861;28;126673;-67
2021/05/03 11:51:43;;;;;;;;;4.80;4.00;;;;;19.93;24.10;98935.97;6212752;28;124920;-67
2021/05/03 11:54:46;;;;;;;;;4.00;4.00;;;;;19.65;24.66;98943.75;6214344;28;125876;-67
2021/05/03 11:57:49;;;;;;;;;5.00;4.00;;;;;19.52;25.51;98958.00;6213904;28;125434;-67
2021/05/03 12:00:51;;;;;;;;;5.00;5.00;;;;;19.10;26.86;98969.28;6214253;28;125092;-67
2021/05/03 12:03:57;;;;;;;;;5.00;4.00;;;;;18.95;27.90;98977.50;6212328;28;125812;-67
2021/05/03 12:06:59;;;;;;;;;5.00;5.00;;;;;18.62;28.14;98992.47;6214041;28;126043;-67
2021/05/03 12:10:05;;;;;;;;;4.00;4.00;;;;;18.50;28.29;98980.97;6212376;28;125377;-67
2021/05/03 12:13:14;;;;;;;;;5.40;4.80;;;;;18.40;28.35;98984.50;6212456;28;124631;-67
2021/05/03 12:16:32;;;;;;;;;4.00;4.00;;;;;18.09;27.75;98977.31;6205772;28;124276;-67
2021/05/03 12:19:34;;;;;;;;;5.80;4.80;;;;;18.21;27.75;98974.38;6206810;28;127247;-67
2021/05/03 12:22:39;;;;;;;;;4.00;4.00;;;;;18.22;27.53;98965.09;6210494;28;125431;-67
2021/05/03 12:25:49;;;;;;;;;5.00;5.00;;;;;18.56;28.71;98974.47;6212759;28;125215;-67
2021/05/03 12:28:51;;;;;;;;;7.00;6.00;;;;;18.71;28.49;98949.91;6197822;28;126360;-67
2021/05/03 12:31:54;;;;;;;;;5.00;5.00;;;;;18.65;28.58;98972.84;6199063;28;125057;-67
2021/05/03 12:34:57;;;;;;;;;5.00;5.00;;;;;18.36;29.68;98963.50;6211635;28;127591;-67
2021/05/03 12:37:59;;;;;;;;;8.00;6.00;;;;;18.47;30.55;98967.88;6200306;28;123732;-68
2021/05/03 12:41:04;;;;;;;;;6.00;6.00;;;;;18.68;29.92;98966.00;6197490;28;127631;-68
2021/05/03 12:44:06;;;;;;;;;8.75;7.00;;;;;18.79;29.75;98952.09;6188799;28;124786;-68
2021/05/03 12:47:39;;;;;;;;;7.80;7.00;;;;;18.97;29.39;98957.00;6190768;28;126305;-68
2021/05/03 12:50:51;;;;;;;;;7.00;5.00;;;;;19.37;28.40;98949.81;6201552;28;125807;-67
2021/05/03 12:54:14;;;;;;;;;6.00;5.00;;;;;19.59;26.17;98957.72;6204076;28;123841;-68
2021/05/03 12:57:22;;;;;;;;;5.00;5.00;;;;;19.51;25.54;98950.09;6208684;28;127094;-66
2021/05/03 13:00:28;;;;;;;;;6.00;6.00;;;;;19.60;25.59;98942.94;6191938;28;125942;-67
2021/05/03 13:03:38;;;;;;;;;5.00;4.00;;;;;19.38;26.03;98943.25;6210302;28;126037;-67
2021/05/03 13:07:10;;;;;;;;;6.00;6.00;;;;;18.96;27.07;98960.81;6203217;28;125403;-67
2021/05/03 13:30:33;;;;;;;;;6.60;6.00;;;;;18.44;27.99;98943.84;6199203;28;124158;-67
2021/05/03 13:33:35;;;;;;;;;7.40;7.00;;;;;18.54;28.43;98938.41;6195305;28;124855;-67
2021/05/03 13:36:39;;;;;;;;;6.00;5.00;;;;;18.61;27.92;98925.34;6195217;28;125443;-67
2021/05/03 13:39:42;;;;;;;;;6.60;6.60;;;;;18.65;27.92;98926.41;6211811;28;126457;-67
2021/05/03 13:42:45;;;;;;;;;7.00;6.00;;;;;18.90;27.99;98939.25;6210669;28;124269;-67
2021/05/03 13:45:48;;;;;;;;;16.60;15.60;;;;;18.57;27.03;98913.28;6210222;28;126213;-67
2021/05/03 13:48:50;;;;;;;;;14.75;13.75;;;;;18.70;27.37;98926.41;6202540;28;126085;-67
2021/05/03 13:51:54;;;;;;;;;7.00;7.00;;;;;18.69;26.98;98934.88;6188693;28;127631;-68
2021/05/03 13:54:56;;;;;;;;;7.00;7.00;;;;;18.96;26.33;98928.03;6186596;28;128101;-67
2021/05/03 13:57:58;;;;;;;;;7.00;6.50;;;;;19.06;25.93;98929.13;6186637;28;125152;-67
2021/05/03 14:01:02;;;;;;;;;6.00;6.00;;;;;19.16;25.34;98940.84;6211058;28;126050;-67
2021/05/03 14:04:04;;;;;;;;;4.00;4.00;;;;;19.00;24.98;98898.25;6211687;28;124999;-68
2021/05/03 14:07:08;;;;;;;;;6.40;6.00;;;;;19.34;24.74;98948.47;6210204;28;126918;-67
2021/05/03 14:10:12;;;;;;;;;4.00;4.00;;;;;19.17;24.62;98909.69;6211211;28;124009;-67
2021/05/03 14:13:14;;;;;;;;;4.00;4.00;;;;;19.31;24.80;98931.78;6209533;28;125298;-66
2021/05/03 14:16:17;;;;;;;;;6.80;5.80;;;;;19.14;24.96;98925.81;6186404;28;125439;-66
2021/05/03 14:19:23;;;;;;;;;9.60;9.00;;;;;19.09;25.10;98931.28;6186330;28;126304;-67
2021/05/03 14:22:25;;;;;;;;;5.00;5.00;;;;;18.80;24.81;98899.09;6186644;28;125780;-68
2021/05/03 14:25:31;;;;;;;;;3.60;3.60;;;;;18.89;24.62;98900.19;6210520;28;128176;-67
2021/05/03 14:28:37;;;;;;;;;5.00;4.50;;;;;19.11;25.09;98923.66;6209836;28;125030;-67
2021/05/03 14:31:43;;;;;;;;;5.50;5.00;;;;;19.11;24.72;98929.13;6210651;28;125956;-67
2021/05/03 14:34:51;;;;;;;;;5.00;5.00;;;;;18.91;24.14;98938.94;6209899;28;125783;-67
2021/05/03 14:37:54;;;;;;;;;4.00;4.00;;;;;18.92;24.62;98926.94;6211089;28;125379;-67
2021/05/03 14:40:57;;;;;;;;;5.20;5.00;;;;;18.85;24.31;98923.69;6211299;28;124951;-67